sensor_id;sensor_type;location;lat;lon;timestamp;P1;durP1;ratioP1;P2;durP2;ratioP2
7729;SDS011;3908;52.310;7.230;2023-03-01T00:02:30;14.43;;;9.00;;
7729;SDS011;3908;52.310;7.230;2023-03-01T00:05:17;13.37;;;7.73;;
7729;SDS011;3908;52.310;7.230;2023-03-01T00:08:04;15.27;;;8.40;;
7729;SDS011;3908;52.310;7.230;2023-03-01T00:11:00;13.20;;;8.13;;
7729;SDS011;3908;52.310;7.230;2023-03-01T00:13:49;15.60;;;7.93;;
7729;SDS011;3908;52.310;7.230;2023-03-01T00:16:38;9.80;;;6.43;;
7729;SDS011;3908;52.310;7.230;2023-03-01T00:19:26;12.23;;;7.47;;
7729;SDS011;3908;52.310;7.230;2023-03-01T00:22:13;10.30;;;7.53;;
7729;SDS011;3908;52.310;7.230;2023-03-01T00:25:00;9.27;;;6.77;;
7729;SDS011;3908;52.310;7.230;2023-03-01T00:27:49;11.07;;;7.53;;
7729;SDS011;3908;52.310;7.230;2023-03-01T00:30:36;9.63;;;7.03;;
7729;SDS011;3908;52.310;7.230;2023-03-01T00:33:23;11.60;;;6.90;;
7729;SDS011;3908;52.310;7.230;2023-03-01T00:36:11;8.57;;;6.83;;
7729;SDS011;3908;52.310;7.230;2023-03-01T00:38:59;10.97;;;6.13;;
7729;SDS011;3908;52.310;7.230;2023-03-01T00:41:47;8.70;;;6.17;;
7729;SDS011;3908;52.310;7.230;2023-03-01T00:44:36;9.87;;;5.93;;
7729;SDS011;3908;52.310;7.230;2023-03-01T00:47:23;6.83;;;5.73;;
7729;SDS011;3908;52.310;7.230;2023-03-01T00:50:11;9.40;;;5.77;;
7729;SDS011;3908;52.310;7.230;2023-03-01T00:52:58;8.17;;;5.87;;
7729;SDS011;3908;52.310;7.230;2023-03-01T00:55:45;8.53;;;6.20;;
7729;SDS011;3908;52.310;7.230;2023-03-01T00:58:32;9.90;;;6.00;;
7729;SDS011;3908;52.310;7.230;2023-03-01T01:01:22;11.40;;;6.53;;
7729;SDS011;3908;52.310;7.230;2023-03-01T01:04:10;10.47;;;6.10;;
7729;SDS011;3908;52.310;7.230;2023-03-01T01:06:59;7.73;;;5.77;;
7729;SDS011;3908;52.310;7.230;2023-03-01T01:09:46;9.00;;;5.90;;
7729;SDS011;3908;52.310;7.230;2023-03-01T01:12:33;11.27;;;6.43;;
7729;SDS011;3908;52.310;7.230;2023-03-01T01:15:20;10.07;;;6.63;;
7729;SDS011;3908;52.310;7.230;2023-03-01T01:18:08;9.70;;;6.07;;
7729;SDS011;3908;52.310;7.230;2023-03-01T01:20:56;6.53;;;5.67;;
7729;SDS011;3908;52.310;7.230;2023-03-01T01:23:43;7.87;;;5.80;;
7729;SDS011;3908;52.310;7.230;2023-03-01T01:26:32;10.47;;;6.33;;
7729;SDS011;3908;52.310;7.230;2023-03-01T01:29:20;9.33;;;6.53;;
7729;SDS011;3908;52.310;7.230;2023-03-01T01:32:07;9.00;;;5.83;;
7729;SDS011;3908;52.310;7.230;2023-03-01T01:34:55;9.77;;;6.23;;
7729;SDS011;3908;52.310;7.230;2023-03-01T01:37:42;13.43;;;7.00;;
7729;SDS011;3908;52.310;7.230;2023-03-01T01:40:29;11.07;;;7.10;;
7729;SDS011;3908;52.310;7.230;2023-03-01T01:43:18;9.90;;;6.63;;
7729;SDS011;3908;52.310;7.230;2023-03-01T01:46:10;11.23;;;6.53;;
7729;SDS011;3908;52.310;7.230;2023-03-01T01:49:06;10.57;;;6.17;;
7729;SDS011;3908;52.310;7.230;2023-03-01T01:52:04;9.97;;;6.27;;
7729;SDS011;3908;52.310;7.230;2023-03-01T01:54:56;10.53;;;7.43;;
7729;SDS011;3908;52.310;7.230;2023-03-01T01:57:48;11.00;;;6.33;;
7729;SDS011;3908;52.310;7.230;2023-03-01T02:00:38;11.53;;;6.67;;
7729;SDS011;3908;52.310;7.230;2023-03-01T02:03:26;8.83;;;6.50;;
7729;SDS011;3908;52.310;7.230;2023-03-01T02:06:19;8.50;;;6.27;;
7729;SDS011;3908;52.310;7.230;2023-03-01T02:09:15;7.33;;;5.83;;
7729;SDS011;3908;52.310;7.230;2023-03-01T02:12:06;8.40;;;6.60;;
7729;SDS011;3908;52.310;7.230;2023-03-01T02:14:53;9.80;;;6.40;;
7729;SDS011;3908;52.310;7.230;2023-03-01T02:17:40;10.37;;;6.13;;
7729;SDS011;3908;52.310;7.230;2023-03-01T02:20:30;9.23;;;7.20;;
7729;SDS011;3908;52.310;7.230;2023-03-01T02:23:21;10.50;;;6.53;;
7729;SDS011;3908;52.310;7.230;2023-03-01T02:26:11;8.80;;;5.80;;
7729;SDS011;3908;52.310;7.230;2023-03-01T02:29:06;10.73;;;6.40;;
7729;SDS011;3908;52.310;7.230;2023-03-01T02:31:54;7.43;;;6.00;;
7729;SDS011;3908;52.310;7.230;2023-03-01T02:34:44;8.20;;;6.00;;
7729;SDS011;3908;52.310;7.230;2023-03-01T02:37:31;8.43;;;6.13;;
7729;SDS011;3908;52.310;7.230;2023-03-01T02:40:19;8.43;;;6.07;;
7729;SDS011;3908;52.310;7.230;2023-03-01T02:43:08;9.43;;;5.40;;
7729;SDS011;3908;52.310;7.230;2023-03-01T02:46:02;10.97;;;6.93;;
7729;SDS011;3908;52.310;7.230;2023-03-01T02:48:51;8.73;;;5.93;;
7729;SDS011;3908;52.310;7.230;2023-03-01T02:51:42;9.70;;;6.30;;
7729;SDS011;3908;52.310;7.230;2023-03-01T02:54:36;9.40;;;6.13;;
7729;SDS011;3908;52.310;7.230;2023-03-01T02:57:29;8.03;;;5.97;;
7729;SDS011;3908;52.310;7.230;2023-03-01T03:00:19;8.73;;;5.67;;
7729;SDS011;3908;52.310;7.230;2023-03-01T03:03:11;8.90;;;6.13;;
7729;SDS011;3908;52.310;7.230;2023-03-01T03:06:00;6.73;;;5.30;;
7729;SDS011;3908;52.310;7.230;2023-03-01T03:08:47;7.87;;;5.50;;
7729;SDS011;3908;52.310;7.230;2023-03-01T03:11:34;11.50;;;6.63;;
7729;SDS011;3908;52.310;7.230;2023-03-01T03:14:22;8.30;;;6.13;;
7729;SDS011;3908;52.310;7.230;2023-03-01T03:17:09;9.90;;;6.30;;
7729;SDS011;3908;52.310;7.230;2023-03-01T03:19:57;6.43;;;5.30;;
7729;SDS011;3908;52.310;7.230;2023-03-01T03:22:44;9.97;;;6.30;;
7729;SDS011;3908;52.310;7.230;2023-03-01T03:25:32;10.37;;;5.70;;
7729;SDS011;3908;52.310;7.230;2023-03-01T03:28:23;9.13;;;5.80;;
7729;SDS011;3908;52.310;7.230;2023-03-01T03:31:10;8.93;;;6.00;;
7729;SDS011;3908;52.310;7.230;2023-03-01T03:33:57;8.63;;;6.10;;
7729;SDS011;3908;52.310;7.230;2023-03-01T03:36:45;8.30;;;5.87;;
7729;SDS011;3908;52.310;7.230;2023-03-01T03:39:32;10.20;;;6.07;;
7729;SDS011;3908;52.310;7.230;2023-03-01T03:42:20;11.83;;;6.47;;
7729;SDS011;3908;52.310;7.230;2023-03-01T03:45:08;11.43;;;6.30;;
7729;SDS011;3908;52.310;7.230;2023-03-01T03:47:55;9.70;;;6.63;;
7729;SDS011;3908;52.310;7.230;2023-03-01T03:50:46;9.87;;;6.47;;
7729;SDS011;3908;52.310;7.230;2023-03-01T03:53:36;9.20;;;6.07;;
7729;SDS011;3908;52.310;7.230;2023-03-01T03:56:24;10.63;;;6.00;;
7729;SDS011;3908;52.310;7.230;2023-03-01T03:59:11;7.77;;;5.63;;
7729;SDS011;3908;52.310;7.230;2023-03-01T04:01:58;8.07;;;5.57;;
7729;SDS011;3908;52.310;7.230;2023-03-01T04:04:45;8.60;;;5.40;;
7729;SDS011;3908;52.310;7.230;2023-03-01T04:07:35;11.77;;;6.33;;
7729;SDS011;3908;52.310;7.230;2023-03-01T04:10:23;8.63;;;6.47;;
7729;SDS011;3908;52.310;7.230;2023-03-01T04:13:13;8.73;;;6.70;;
7729;SDS011;3908;52.310;7.230;2023-03-01T04:16:02;7.50;;;6.27;;
7729;SDS011;3908;52.310;7.230;2023-03-01T04:18:49;8.10;;;5.47;;
7729;SDS011;3908;52.310;7.230;2023-03-01T04:21:37;9.13;;;5.70;;
7729;SDS011;3908;52.310;7.230;2023-03-01T04:24:24;9.37;;;6.43;;
7729;SDS011;3908;52.310;7.230;2023-03-01T04:27:13;12.07;;;6.13;;
7729;SDS011;3908;52.310;7.230;2023-03-01T04:30:00;9.87;;;7.17;;
7729;SDS011;3908;52.310;7.230;2023-03-01T04:32:47;10.87;;;7.30;;
7729;SDS011;3908;52.310;7.230;2023-03-01T04:35:35;9.40;;;6.50;;
7729;SDS011;3908;52.310;7.230;2023-03-01T04:38:23;11.30;;;5.97;;
7729;SDS011;3908;52.310;7.230;2023-03-01T04:41:10;8.83;;;6.63;;
7729;SDS011;3908;52.310;7.230;2023-03-01T04:43:59;9.60;;;6.33;;
7729;SDS011;3908;52.310;7.230;2023-03-01T04:46:48;8.97;;;6.00;;
7729;SDS011;3908;52.310;7.230;2023-03-01T04:49:35;9.73;;;6.13;;
7729;SDS011;3908;52.310;7.230;2023-03-01T04:52:22;8.67;;;5.80;;
7729;SDS011;3908;52.310;7.230;2023-03-01T04:55:10;8.80;;;5.70;;
7729;SDS011;3908;52.310;7.230;2023-03-01T04:57:57;8.30;;;5.90;;
7729;SDS011;3908;52.310;7.230;2023-03-01T05:00:46;10.73;;;6.27;;
7729;SDS011;3908;52.310;7.230;2023-03-01T05:03:33;10.90;;;6.47;;
7729;SDS011;3908;52.310;7.230;2023-03-01T05:06:20;11.97;;;6.03;;
7729;SDS011;3908;52.310;7.230;2023-03-01T05:09:08;14.20;;;7.07;;
7729;SDS011;3908;52.310;7.230;2023-03-01T05:11:56;8.23;;;6.03;;
7729;SDS011;3908;52.310;7.230;2023-03-01T05:14:43;9.77;;;6.63;;
7729;SDS011;3908;52.310;7.230;2023-03-01T05:17:31;9.63;;;6.23;;
7729;SDS011;3908;52.310;7.230;2023-03-01T05:20:19;11.53;;;6.83;;
7729;SDS011;3908;52.310;7.230;2023-03-01T05:23:09;9.43;;;6.30;;
7729;SDS011;3908;52.310;7.230;2023-03-01T05:25:57;14.80;;;7.87;;
7729;SDS011;3908;52.310;7.230;2023-03-01T05:28:44;10.70;;;6.83;;
7729;SDS011;3908;52.310;7.230;2023-03-01T05:31:32;11.20;;;7.80;;
7729;SDS011;3908;52.310;7.230;2023-03-01T05:34:22;10.07;;;6.80;;
7729;SDS011;3908;52.310;7.230;2023-03-01T05:37:10;9.63;;;6.43;;
7729;SDS011;3908;52.310;7.230;2023-03-01T05:39:57;9.33;;;6.60;;
7729;SDS011;3908;52.310;7.230;2023-03-01T05:42:45;7.33;;;6.07;;
7729;SDS011;3908;52.310;7.230;2023-03-01T05:45:35;10.40;;;6.63;;
7729;SDS011;3908;52.310;7.230;2023-03-01T05:48:22;10.80;;;6.57;;
7729;SDS011;3908;52.310;7.230;2023-03-01T05:51:11;9.70;;;6.83;;
7729;SDS011;3908;52.310;7.230;2023-03-01T05:53:58;7.90;;;6.13;;
7729;SDS011;3908;52.310;7.230;2023-03-01T05:56:45;18.37;;;6.93;;
7729;SDS011;3908;52.310;7.230;2023-03-01T05:59:32;11.23;;;6.40;;
7729;SDS011;3908;52.310;7.230;2023-03-01T06:02:20;11.87;;;7.50;;
7729;SDS011;3908;52.310;7.230;2023-03-01T06:05:08;13.53;;;7.97;;
7729;SDS011;3908;52.310;7.230;2023-03-01T06:07:59;11.47;;;6.53;;
7729;SDS011;3908;52.310;7.230;2023-03-01T06:10:47;8.57;;;6.23;;
7729;SDS011;3908;52.310;7.230;2023-03-01T06:13:34;8.83;;;6.23;;
7729;SDS011;3908;52.310;7.230;2023-03-01T06:16:21;9.83;;;7.20;;
7729;SDS011;3908;52.310;7.230;2023-03-01T06:19:08;9.47;;;6.23;;
7729;SDS011;3908;52.310;7.230;2023-03-01T06:21:55;12.57;;;6.70;;
7729;SDS011;3908;52.310;7.230;2023-03-01T06:24:44;9.33;;;7.20;;
7729;SDS011;3908;52.310;7.230;2023-03-01T06:27:31;9.93;;;6.50;;
7729;SDS011;3908;52.310;7.230;2023-03-01T06:30:18;9.70;;;6.00;;
7729;SDS011;3908;52.310;7.230;2023-03-01T06:33:06;9.23;;;6.20;;
7729;SDS011;3908;52.310;7.230;2023-03-01T06:35:54;14.03;;;7.43;;
7729;SDS011;3908;52.310;7.230;2023-03-01T06:38:41;12.57;;;6.67;;
7729;SDS011;3908;52.310;7.230;2023-03-01T06:41:31;9.90;;;7.00;;
7729;SDS011;3908;52.310;7.230;2023-03-01T06:44:19;12.80;;;6.97;;
7729;SDS011;3908;52.310;7.230;2023-03-01T06:47:06;13.93;;;6.70;;
7729;SDS011;3908;52.310;7.230;2023-03-01T06:49:53;11.60;;;7.27;;
7729;SDS011;3908;52.310;7.230;2023-03-01T06:52:41;11.17;;;6.73;;
7729;SDS011;3908;52.310;7.230;2023-03-01T06:55:29;12.60;;;7.67;;
7729;SDS011;3908;52.310;7.230;2023-03-01T06:58:17;10.23;;;6.93;;
7729;SDS011;3908;52.310;7.230;2023-03-01T07:01:06;12.13;;;7.10;;
7729;SDS011;3908;52.310;7.230;2023-03-01T07:03:54;10.10;;;7.13;;
7729;SDS011;3908;52.310;7.230;2023-03-01T07:06:42;13.37;;;7.60;;
7729;SDS011;3908;52.310;7.230;2023-03-01T07:09:30;14.20;;;8.30;;
7729;SDS011;3908;52.310;7.230;2023-03-01T07:12:17;11.20;;;7.70;;
7729;SDS011;3908;52.310;7.230;2023-03-01T07:15:08;11.03;;;7.90;;
7729;SDS011;3908;52.310;7.230;2023-03-01T07:17:57;12.33;;;8.07;;
7729;SDS011;3908;52.310;7.230;2023-03-01T07:20:44;12.13;;;7.93;;
7729;SDS011;3908;52.310;7.230;2023-03-01T07:23:32;11.63;;;7.70;;
7729;SDS011;3908;52.310;7.230;2023-03-01T07:26:21;11.37;;;8.13;;
7729;SDS011;3908;52.310;7.230;2023-03-01T07:29:09;12.83;;;8.70;;
7729;SDS011;3908;52.310;7.230;2023-03-01T07:31:58;13.23;;;9.43;;
7729;SDS011;3908;52.310;7.230;2023-03-01T07:34:46;14.50;;;9.10;;
7729;SDS011;3908;52.310;7.230;2023-03-01T07:37:34;15.77;;;9.87;;
7729;SDS011;3908;52.310;7.230;2023-03-01T07:40:21;16.13;;;9.47;;
7729;SDS011;3908;52.310;7.230;2023-03-01T07:43:09;12.30;;;9.03;;
7729;SDS011;3908;52.310;7.230;2023-03-01T07:45:57;16.47;;;9.50;;
7729;SDS011;3908;52.310;7.230;2023-03-01T07:48:47;17.93;;;9.40;;
7729;SDS011;3908;52.310;7.230;2023-03-01T07:51:34;13.83;;;9.37;;
7729;SDS011;3908;52.310;7.230;2023-03-01T07:54:22;15.50;;;9.60;;
7729;SDS011;3908;52.310;7.230;2023-03-01T07:57:09;15.70;;;9.73;;
7729;SDS011;3908;52.310;7.230;2023-03-01T07:59:57;14.40;;;9.87;;
7729;SDS011;3908;52.310;7.230;2023-03-01T08:02:49;16.93;;;11.27;;
7729;SDS011;3908;52.310;7.230;2023-03-01T08:05:39;15.17;;;9.67;;
7729;SDS011;3908;52.310;7.230;2023-03-01T08:08:26;13.97;;;9.73;;
7729;SDS011;3908;52.310;7.230;2023-03-01T08:11:14;20.80;;;8.80;;
7729;SDS011;3908;52.310;7.230;2023-03-01T08:14:01;12.27;;;8.53;;
7729;SDS011;3908;52.310;7.230;2023-03-01T08:16:49;14.03;;;8.57;;
7729;SDS011;3908;52.310;7.230;2023-03-01T08:19:40;13.97;;;8.70;;
7729;SDS011;3908;52.310;7.230;2023-03-01T08:22:28;10.73;;;7.97;;
7729;SDS011;3908;52.310;7.230;2023-03-01T08:25:15;13.60;;;8.77;;
7729;SDS011;3908;52.310;7.230;2023-03-01T08:28:02;12.47;;;8.80;;
7729;SDS011;3908;52.310;7.230;2023-03-01T08:30:50;11.50;;;7.50;;
7729;SDS011;3908;52.310;7.230;2023-03-01T08:33:37;14.10;;;8.83;;
7729;SDS011;3908;52.310;7.230;2023-03-01T08:36:26;13.20;;;7.90;;
7729;SDS011;3908;52.310;7.230;2023-03-01T08:39:16;12.23;;;7.67;;
7729;SDS011;3908;52.310;7.230;2023-03-01T08:42:05;14.20;;;8.30;;
7729;SDS011;3908;52.310;7.230;2023-03-01T08:44:52;13.37;;;8.43;;
7729;SDS011;3908;52.310;7.230;2023-03-01T08:47:39;12.40;;;8.17;;
7729;SDS011;3908;52.310;7.230;2023-03-01T08:50:26;13.43;;;7.97;;
7729;SDS011;3908;52.310;7.230;2023-03-01T08:53:13;11.63;;;6.93;;
7729;SDS011;3908;52.310;7.230;2023-03-01T08:56:02;12.77;;;8.10;;
7729;SDS011;3908;52.310;7.230;2023-03-01T08:58:49;10.63;;;6.80;;
7729;SDS011;3908;52.310;7.230;2023-03-01T09:01:36;10.53;;;6.80;;
7729;SDS011;3908;52.310;7.230;2023-03-01T09:04:24;10.50;;;6.97;;
7729;SDS011;3908;52.310;7.230;2023-03-01T09:07:11;10.13;;;7.10;;
7729;SDS011;3908;52.310;7.230;2023-03-01T09:10:02;10.53;;;6.90;;
7729;SDS011;3908;52.310;7.230;2023-03-01T09:12:50;9.63;;;6.17;;
7729;SDS011;3908;52.310;7.230;2023-03-01T09:15:37;10.53;;;6.47;;
7729;SDS011;3908;52.310;7.230;2023-03-01T09:18:25;13.50;;;6.33;;
7729;SDS011;3908;52.310;7.230;2023-03-01T09:21:13;13.20;;;6.27;;
7729;SDS011;3908;52.310;7.230;2023-03-01T09:24:01;9.13;;;6.70;;
7729;SDS011;3908;52.310;7.230;2023-03-01T09:26:48;8.30;;;5.33;;
7729;SDS011;3908;52.310;7.230;2023-03-01T09:29:37;12.80;;;5.33;;
7729;SDS011;3908;52.310;7.230;2023-03-01T09:32:24;11.53;;;5.90;;
7729;SDS011;3908;52.310;7.230;2023-03-01T09:35:11;12.73;;;6.93;;
7729;SDS011;3908;52.310;7.230;2023-03-01T09:37:59;7.47;;;4.73;;
7729;SDS011;3908;52.310;7.230;2023-03-01T09:40:47;7.40;;;5.00;;
7729;SDS011;3908;52.310;7.230;2023-03-01T09:43:37;8.53;;;5.07;;
7729;SDS011;3908;52.310;7.230;2023-03-01T09:46:33;10.37;;;5.23;;
7729;SDS011;3908;52.310;7.230;2023-03-01T09:49:27;13.33;;;6.30;;
7729;SDS011;3908;52.310;7.230;2023-03-01T09:52:19;8.10;;;5.00;;
7729;SDS011;3908;52.310;7.230;2023-03-01T09:55:12;7.57;;;4.27;;
7729;SDS011;3908;52.310;7.230;2023-03-01T09:58:04;6.77;;;4.60;;
7729;SDS011;3908;52.310;7.230;2023-03-01T10:01:06;6.93;;;4.40;;
7729;SDS011;3908;52.310;7.230;2023-03-01T10:04:08;8.20;;;4.77;;
7729;SDS011;3908;52.310;7.230;2023-03-01T10:07:07;7.63;;;4.70;;
7729;SDS011;3908;52.310;7.230;2023-03-01T10:10:07;8.80;;;4.60;;
7729;SDS011;3908;52.310;7.230;2023-03-01T10:13:09;6.33;;;4.50;;
7729;SDS011;3908;52.310;7.230;2023-03-01T10:16:03;8.87;;;4.70;;
7729;SDS011;3908;52.310;7.230;2023-03-01T10:18:58;9.83;;;5.03;;
7729;SDS011;3908;52.310;7.230;2023-03-01T10:21:50;7.67;;;4.33;;
7729;SDS011;3908;52.310;7.230;2023-03-01T10:24:38;7.60;;;4.47;;
7729;SDS011;3908;52.310;7.230;2023-03-01T10:27:26;5.83;;;3.97;;
7729;SDS011;3908;52.310;7.230;2023-03-01T10:30:22;7.40;;;4.60;;
7729;SDS011;3908;52.310;7.230;2023-03-01T10:33:20;7.47;;;4.50;;
7729;SDS011;3908;52.310;7.230;2023-03-01T10:36:10;7.13;;;4.33;;
7729;SDS011;3908;52.310;7.230;2023-03-01T10:38:59;7.80;;;4.40;;
7729;SDS011;3908;52.310;7.230;2023-03-01T10:41:58;6.93;;;4.50;;
7729;SDS011;3908;52.310;7.230;2023-03-01T10:44:47;6.67;;;4.27;;
7729;SDS011;3908;52.310;7.230;2023-03-01T10:47:35;7.97;;;4.97;;
7729;SDS011;3908;52.310;7.230;2023-03-01T10:50:23;7.30;;;4.43;;
7729;SDS011;3908;52.310;7.230;2023-03-01T10:53:21;9.20;;;4.93;;
7729;SDS011;3908;52.310;7.230;2023-03-01T10:56:14;8.07;;;4.93;;
7729;SDS011;3908;52.310;7.230;2023-03-01T10:59:02;7.17;;;4.60;;
7729;SDS011;3908;52.310;7.230;2023-03-01T11:02:01;9.07;;;4.63;;
7729;SDS011;3908;52.310;7.230;2023-03-01T11:05:16;9.93;;;5.13;;
7729;SDS011;3908;52.310;7.230;2023-03-01T11:08:09;8.27;;;4.70;;
7729;SDS011;3908;52.310;7.230;2023-03-01T11:14:19;6.60;;;4.07;;
7729;SDS011;3908;52.310;7.230;2023-03-01T11:17:11;7.43;;;3.93;;
7729;SDS011;3908;52.310;7.230;2023-03-01T11:20:07;8.37;;;4.27;;
7729;SDS011;3908;52.310;7.230;2023-03-01T11:23:08;6.90;;;4.23;;
7729;SDS011;3908;52.310;7.230;2023-03-01T11:26:04;6.07;;;3.90;;
7729;SDS011;3908;52.310;7.230;2023-03-01T11:28:55;6.20;;;4.07;;
7729;SDS011;3908;52.310;7.230;2023-03-01T11:31:47;9.17;;;4.37;;
7729;SDS011;3908;52.310;7.230;2023-03-01T11:34:38;7.47;;;4.40;;
7729;SDS011;3908;52.310;7.230;2023-03-01T11:37:32;8.60;;;4.90;;
7729;SDS011;3908;52.310;7.230;2023-03-01T11:40:25;6.73;;;4.43;;
7729;SDS011;3908;52.310;7.230;2023-03-01T11:43:17;9.37;;;3.80;;
7729;SDS011;3908;52.310;7.230;2023-03-01T11:46:24;5.97;;;3.87;;
7729;SDS011;3908;52.310;7.230;2023-03-01T11:49:41;8.20;;;4.23;;
7729;SDS011;3908;52.310;7.230;2023-03-01T11:52:48;4.60;;;3.13;;
7729;SDS011;3908;52.310;7.230;2023-03-01T11:55:50;5.97;;;3.90;;
7729;SDS011;3908;52.310;7.230;2023-03-01T12:02:21;5.37;;;3.10;;
7729;SDS011;3908;52.310;7.230;2023-03-01T12:05:42;7.60;;;4.27;;
7729;SDS011;3908;52.310;7.230;2023-03-01T12:08:45;8.67;;;3.97;;
7729;SDS011;3908;52.310;7.230;2023-03-01T12:11:39;3.90;;;3.40;;
7729;SDS011;3908;52.310;7.230;2023-03-01T12:17:50;5.23;;;3.27;;
7729;SDS011;3908;52.310;7.230;2023-03-01T12:20:51;4.20;;;3.00;;
7729;SDS011;3908;52.310;7.230;2023-03-01T12:23:51;5.13;;;3.37;;
7729;SDS011;3908;52.310;7.230;2023-03-01T12:27:00;4.30;;;2.93;;
7729;SDS011;3908;52.310;7.230;2023-03-01T12:30:04;4.67;;;3.00;;
7729;SDS011;3908;52.310;7.230;2023-03-01T12:33:09;5.20;;;3.37;;
7729;SDS011;3908;52.310;7.230;2023-03-01T12:36:12;4.27;;;3.10;;
7729;SDS011;3908;52.310;7.230;2023-03-01T12:39:16;4.97;;;3.47;;
7729;SDS011;3908;52.310;7.230;2023-03-01T12:42:15;5.17;;;3.30;;
7729;SDS011;3908;52.310;7.230;2023-03-01T12:45:27;5.10;;;3.70;;
7729;SDS011;3908;52.310;7.230;2023-03-01T12:48:35;5.30;;;3.47;;
7729;SDS011;3908;52.310;7.230;2023-03-01T12:51:30;5.53;;;2.87;;
7729;SDS011;3908;52.310;7.230;2023-03-01T12:54:20;5.43;;;3.03;;
7729;SDS011;3908;52.310;7.230;2023-03-01T12:57:14;6.13;;;3.80;;
7729;SDS011;3908;52.310;7.230;2023-03-01T13:00:14;5.67;;;3.13;;
7729;SDS011;3908;52.310;7.230;2023-03-01T13:03:14;6.93;;;3.00;;
7729;SDS011;3908;52.310;7.230;2023-03-01T13:06:12;4.27;;;2.80;;
7729;SDS011;3908;52.310;7.230;2023-03-01T13:09:08;4.93;;;2.53;;
7729;SDS011;3908;52.310;7.230;2023-03-01T13:15:30;3.43;;;2.50;;
7729;SDS011;3908;52.310;7.230;2023-03-01T13:18:28;3.83;;;2.50;;
7729;SDS011;3908;52.310;7.230;2023-03-01T13:21:30;5.67;;;2.93;;
7729;SDS011;3908;52.310;7.230;2023-03-01T13:24:27;3.40;;;2.40;;
7729;SDS011;3908;52.310;7.230;2023-03-01T13:27:23;6.00;;;2.70;;
7729;SDS011;3908;52.310;7.230;2023-03-01T13:33:33;3.53;;;2.70;;
7729;SDS011;3908;52.310;7.230;2023-03-01T13:36:47;3.93;;;2.60;;
7729;SDS011;3908;52.310;7.230;2023-03-01T13:39:39;4.63;;;2.90;;
7729;SDS011;3908;52.310;7.230;2023-03-01T13:42:30;3.77;;;2.70;;
7729;SDS011;3908;52.310;7.230;2023-03-01T13:45:24;6.13;;;2.50;;
7729;SDS011;3908;52.310;7.230;2023-03-01T13:48:22;4.33;;;2.73;;
7729;SDS011;3908;52.310;7.230;2023-03-01T13:51:12;3.47;;;2.33;;
7729;SDS011;3908;52.310;7.230;2023-03-01T13:54:01;4.33;;;2.60;;
7729;SDS011;3908;52.310;7.230;2023-03-01T13:56:48;3.13;;;2.40;;
7729;SDS011;3908;52.310;7.230;2023-03-01T13:59:36;4.83;;;2.97;;
7729;SDS011;3908;52.310;7.230;2023-03-01T14:02:35;6.07;;;2.50;;
7729;SDS011;3908;52.310;7.230;2023-03-01T14:05:22;6.57;;;2.53;;
7729;SDS011;3908;52.310;7.230;2023-03-01T14:14:42;5.03;;;2.47;;
7729;SDS011;3908;52.310;7.230;2023-03-01T14:17:39;5.33;;;3.33;;
7729;SDS011;3908;52.310;7.230;2023-03-01T14:20:37;5.50;;;3.10;;
7729;SDS011;3908;52.310;7.230;2023-03-01T14:23:26;3.87;;;2.90;;
7729;SDS011;3908;52.310;7.230;2023-03-01T14:26:14;5.53;;;3.13;;
7729;SDS011;3908;52.310;7.230;2023-03-01T14:32:11;7.00;;;3.70;;
7729;SDS011;3908;52.310;7.230;2023-03-01T14:35:19;8.77;;;3.20;;
7729;SDS011;3908;52.310;7.230;2023-03-01T14:38:19;4.83;;;3.30;;
7729;SDS011;3908;52.310;7.230;2023-03-01T14:41:09;8.63;;;4.30;;
7729;SDS011;3908;52.310;7.230;2023-03-01T14:44:02;5.60;;;3.03;;
7729;SDS011;3908;52.310;7.230;2023-03-01T14:46:53;4.70;;;2.80;;
7729;SDS011;3908;52.310;7.230;2023-03-01T14:49:44;5.03;;;3.27;;
7729;SDS011;3908;52.310;7.230;2023-03-01T14:52:32;3.83;;;3.10;;
7729;SDS011;3908;52.310;7.230;2023-03-01T14:55:22;4.30;;;3.10;;
7729;SDS011;3908;52.310;7.230;2023-03-01T14:58:14;5.60;;;3.13;;
7729;SDS011;3908;52.310;7.230;2023-03-01T15:01:05;6.17;;;3.67;;
7729;SDS011;3908;52.310;7.230;2023-03-01T15:03:53;6.30;;;3.53;;
7729;SDS011;3908;52.310;7.230;2023-03-01T15:06:42;5.30;;;3.23;;
7729;SDS011;3908;52.310;7.230;2023-03-01T15:09:31;5.87;;;3.00;;
7729;SDS011;3908;52.310;7.230;2023-03-01T15:15:35;5.50;;;3.23;;
7729;SDS011;3908;52.310;7.230;2023-03-01T15:18:25;5.03;;;3.17;;
7729;SDS011;3908;52.310;7.230;2023-03-01T15:21:15;5.40;;;3.30;;
7729;SDS011;3908;52.310;7.230;2023-03-01T15:24:07;5.10;;;3.37;;
7729;SDS011;3908;52.310;7.230;2023-03-01T15:27:12;5.43;;;3.30;;
7729;SDS011;3908;52.310;7.230;2023-03-01T15:30:04;4.27;;;2.90;;
7729;SDS011;3908;52.310;7.230;2023-03-01T15:36:43;4.43;;;3.10;;
7729;SDS011;3908;52.310;7.230;2023-03-01T15:39:38;3.97;;;2.90;;
7729;SDS011;3908;52.310;7.230;2023-03-01T15:42:37;5.40;;;3.40;;
7729;SDS011;3908;52.310;7.230;2023-03-01T15:45:26;7.77;;;3.83;;
7729;SDS011;3908;52.310;7.230;2023-03-01T15:48:15;5.03;;;3.23;;
7729;SDS011;3908;52.310;7.230;2023-03-01T15:51:09;5.80;;;3.60;;
7729;SDS011;3908;52.310;7.230;2023-03-01T15:54:00;5.67;;;3.40;;
7729;SDS011;3908;52.310;7.230;2023-03-01T15:56:52;4.57;;;3.03;;
7729;SDS011;3908;52.310;7.230;2023-03-01T15:59:38;4.77;;;3.20;;
7729;SDS011;3908;52.310;7.230;2023-03-01T16:02:25;5.87;;;3.37;;
7729;SDS011;3908;52.310;7.230;2023-03-01T16:05:15;4.47;;;3.40;;
7729;SDS011;3908;52.310;7.230;2023-03-01T16:08:05;5.77;;;3.50;;
7729;SDS011;3908;52.310;7.230;2023-03-01T16:10:52;3.93;;;3.20;;
7729;SDS011;3908;52.310;7.230;2023-03-01T16:13:41;9.10;;;4.23;;
7729;SDS011;3908;52.310;7.230;2023-03-01T16:16:28;7.17;;;3.77;;
7729;SDS011;3908;52.310;7.230;2023-03-01T16:19:15;6.27;;;3.60;;
7729;SDS011;3908;52.310;7.230;2023-03-01T16:22:02;4.30;;;3.00;;
7729;SDS011;3908;52.310;7.230;2023-03-01T16:24:49;5.07;;;3.80;;
7729;SDS011;3908;52.310;7.230;2023-03-01T16:27:37;5.30;;;3.20;;
7729;SDS011;3908;52.310;7.230;2023-03-01T16:30:25;5.47;;;3.57;;
7729;SDS011;3908;52.310;7.230;2023-03-01T16:33:12;5.43;;;3.20;;
7729;SDS011;3908;52.310;7.230;2023-03-01T16:35:59;6.53;;;3.70;;
7729;SDS011;3908;52.310;7.230;2023-03-01T16:38:47;5.57;;;3.60;;
7729;SDS011;3908;52.310;7.230;2023-03-01T16:41:34;5.63;;;3.77;;
7729;SDS011;3908;52.310;7.230;2023-03-01T16:44:21;5.20;;;3.47;;
7729;SDS011;3908;52.310;7.230;2023-03-01T16:47:10;5.63;;;3.43;;
7729;SDS011;3908;52.310;7.230;2023-03-01T16:49:57;4.93;;;3.47;;
7729;SDS011;3908;52.310;7.230;2023-03-01T16:52:44;5.17;;;3.50;;
7729;SDS011;3908;52.310;7.230;2023-03-01T16:55:31;5.77;;;3.50;;
7729;SDS011;3908;52.310;7.230;2023-03-01T16:58:18;5.70;;;3.77;;
7729;SDS011;3908;52.310;7.230;2023-03-01T17:01:06;5.60;;;3.40;;
7729;SDS011;3908;52.310;7.230;2023-03-01T17:03:57;6.87;;;3.57;;
7729;SDS011;3908;52.310;7.230;2023-03-01T17:06:45;5.50;;;3.17;;
7729;SDS011;3908;52.310;7.230;2023-03-01T17:09:34;8.33;;;4.20;;
7729;SDS011;3908;52.310;7.230;2023-03-01T17:12:22;5.60;;;3.77;;
7729;SDS011;3908;52.310;7.230;2023-03-01T17:15:09;11.33;;;4.33;;
7729;SDS011;3908;52.310;7.230;2023-03-01T17:17:57;6.23;;;3.77;;
7729;SDS011;3908;52.310;7.230;2023-03-01T17:20:45;6.40;;;3.93;;
7729;SDS011;3908;52.310;7.230;2023-03-01T17:23:32;7.53;;;3.50;;
7729;SDS011;3908;52.310;7.230;2023-03-01T17:26:20;4.23;;;3.60;;
7729;SDS011;3908;52.310;7.230;2023-03-01T17:29:07;5.93;;;3.90;;
7729;SDS011;3908;52.310;7.230;2023-03-01T17:31:54;4.30;;;3.30;;
7729;SDS011;3908;52.310;7.230;2023-03-01T17:34:42;6.17;;;3.87;;
7729;SDS011;3908;52.310;7.230;2023-03-01T17:37:32;6.17;;;4.00;;
7729;SDS011;3908;52.310;7.230;2023-03-01T17:40:21;4.60;;;3.47;;
7729;SDS011;3908;52.310;7.230;2023-03-01T17:43:08;5.93;;;3.77;;
7729;SDS011;3908;52.310;7.230;2023-03-01T17:45:57;7.13;;;3.40;;
7729;SDS011;3908;52.310;7.230;2023-03-01T17:48:44;4.03;;;3.40;;
7729;SDS011;3908;52.310;7.230;2023-03-01T17:51:31;4.30;;;3.30;;
7729;SDS011;3908;52.310;7.230;2023-03-01T17:54:19;7.67;;;3.70;;
7729;SDS011;3908;52.310;7.230;2023-03-01T17:57:06;8.90;;;3.50;;
7729;SDS011;3908;52.310;7.230;2023-03-01T17:59:53;6.13;;;3.43;;
7729;SDS011;3908;52.310;7.230;2023-03-01T18:02:40;6.93;;;3.73;;
7729;SDS011;3908;52.310;7.230;2023-03-01T18:05:30;6.63;;;3.83;;
7729;SDS011;3908;52.310;7.230;2023-03-01T18:08:17;6.10;;;3.73;;